createdAt,value
2018-09-27T00:02:23.350Z,59.51
2018-09-27T00:04:51.543Z,59.78
2018-09-27T00:07:19.815Z,60.60
2018-09-27T00:09:47.989Z,60.78
2018-09-27T00:12:16.244Z,61.22
2018-09-27T00:14:44.496Z,61.27
2018-09-27T00:17:12.715Z,61.07
2018-09-27T00:19:41.013Z,60.97
2018-09-27T00:22:09.130Z,61.33
2018-09-27T00:24:37.327Z,61.53
2018-09-27T00:27:05.600Z,60.88
2018-09-27T00:29:33.766Z,61.24
2018-09-27T00:32:02.020Z,61.47
2018-09-27T00:34:30.251Z,62.13
2018-09-27T00:36:58.479Z,62.49
2018-09-27T00:39:26.651Z,62.58
2018-09-27T00:41:54.871Z,62.84
2018-09-27T00:44:23.048Z,62.83
2018-09-27T00:46:51.263Z,63.12
2018-09-27T00:49:19.458Z,63.18
2018-09-27T00:51:47.639Z,63.06
2018-09-27T00:54:15.863Z,62.73
2018-09-27T00:56:44.055Z,62.68
2018-09-27T00:59:12.261Z,62.94
2018-09-27T01:01:40.447Z,62.81
2018-09-27T01:04:08.751Z,62.37
2018-09-27T01:06:36.954Z,62.49
2018-09-27T01:09:07.291Z,62.77
2018-09-27T01:11:35.480Z,62.82
2018-09-27T01:14:03.671Z,63.00
2018-09-27T01:16:31.871Z,62.83
2018-09-27T01:19:00.072Z,62.73
2018-09-27T01:21:28.263Z,63.15
2018-09-27T01:23:56.457Z,62.96
2018-09-27T01:26:24.652Z,61.72
2018-09-27T01:28:52.838Z,61.38
2018-09-27T01:31:21.043Z,61.07
2018-09-27T01:33:49.281Z,61.08
2018-09-27T01:36:17.470Z,61.82
2018-09-27T01:38:45.728Z,61.78
2018-09-27T01:41:13.918Z,61.43
2018-09-27T01:43:42.095Z,60.94
2018-09-27T01:46:10.303Z,61.53
2018-09-27T01:48:38.496Z,61.65
2018-09-27T01:51:06.703Z,62.31
2018-09-27T01:53:34.891Z,62.05
2018-09-27T01:56:03.087Z,61.31
2018-09-27T01:58:31.279Z,61.24
2018-09-27T02:00:59.479Z,61.36
2018-09-27T02:03:27.676Z,61.21
2018-09-27T02:05:55.890Z,61.58
2018-09-27T02:08:24.077Z,61.88
2018-09-27T02:10:52.267Z,62.34
2018-09-27T02:13:20.472Z,62.65
2018-09-27T02:15:49.059Z,63.01
2018-09-27T02:18:17.191Z,63.40
2018-09-27T02:20:45.412Z,63.25
2018-09-27T02:23:13.599Z,63.28
2018-09-27T02:25:41.807Z,62.41
2018-09-27T02:28:10.017Z,62.66
2018-09-27T02:30:38.201Z,62.75
2018-09-27T02:33:06.384Z,62.99
2018-09-27T02:35:34.583Z,63.40
2018-09-27T02:38:02.776Z,63.60
2018-09-27T02:40:30.971Z,62.78
2018-09-27T02:42:59.164Z,62.33
2018-09-27T02:45:27.372Z,62.39
2018-09-27T02:47:55.569Z,62.47
2018-09-27T02:50:23.738Z,62.82
2018-09-27T02:52:51.948Z,63.59
2018-09-27T02:55:20.184Z,63.80
2018-09-27T02:57:48.376Z,63.41
2018-09-27T03:00:16.560Z,62.59
2018-09-27T03:02:44.760Z,62.50
2018-09-27T03:05:12.943Z,62.89
2018-09-27T03:07:41.148Z,62.70
2018-09-27T03:10:09.331Z,62.47
2018-09-27T03:12:37.519Z,62.00
2018-09-27T03:15:05.906Z,62.15
2018-09-27T03:17:34.087Z,62.13
2018-09-27T03:20:02.299Z,62.46
2018-09-27T03:22:30.465Z,62.85
2018-09-27T03:24:58.677Z,63.50
2018-09-27T03:27:26.867Z,63.74
2018-09-27T03:29:55.076Z,63.99
2018-09-27T03:32:23.258Z,63.92
2018-09-27T03:34:51.455Z,63.91
2018-09-27T03:37:19.732Z,63.72
2018-09-27T03:39:47.954Z,63.64
2018-09-27T03:42:16.110Z,63.47
2018-09-27T03:44:44.333Z,62.82
2018-09-27T03:47:12.511Z,63.17
2018-09-27T03:49:40.712Z,63.52
2018-09-27T03:52:08.925Z,63.69
2018-09-27T03:54:37.128Z,63.92
2018-09-27T03:57:05.319Z,63.95
2018-09-27T03:59:33.498Z,63.95
2018-09-27T04:02:01.696Z,62.98
2018-09-27T04:04:29.885Z,62.37
2018-09-27T04:06:58.077Z,62.58
2018-09-27T04:09:26.272Z,62.99
2018-09-27T04:11:54.472Z,63.42
2018-09-27T04:14:22.646Z,63.83
2018-09-27T04:16:50.852Z,64.00
2018-09-27T04:19:19.041Z,64.06
2018-09-27T04:21:47.271Z,64.38
2018-09-27T04:24:15.408Z,64.55
2018-09-27T04:26:43.587Z,64.59
2018-09-27T04:29:11.782Z,64.64
2018-09-27T04:31:40.069Z,64.85
2018-09-27T04:34:08.542Z,63.85
2018-09-27T04:36:43.467Z,63.83
2018-09-27T04:39:13.047Z,63.82
2018-09-27T04:41:41.269Z,63.82
2018-09-27T04:44:10.049Z,64.00
2018-09-27T04:46:38.404Z,64.33
2018-09-27T04:49:06.742Z,64.44
2018-09-27T04:51:34.975Z,64.82
2018-09-27T04:54:03.163Z,64.79
2018-09-27T04:56:31.354Z,64.99
2018-09-27T04:58:59.551Z,65.11
2018-09-27T05:01:27.890Z,65.17
2018-09-27T05:03:56.201Z,65.40
2018-09-27T05:06:24.399Z,65.54
2018-09-27T05:08:52.590Z,65.96
2018-09-27T05:11:20.855Z,65.81
2018-09-27T05:13:49.266Z,66.34
2018-09-27T05:16:17.492Z,66.76
2018-09-27T05:18:45.699Z,66.77
2018-09-27T05:21:13.892Z,67.08
2018-09-27T05:23:42.088Z,67.20
2018-09-27T05:26:10.313Z,67.18
2018-09-27T05:28:38.532Z,67.28
2018-09-27T05:31:06.948Z,67.48
2018-09-27T05:33:35.199Z,67.90
2018-09-27T05:36:03.863Z,68.20
2018-09-27T05:38:32.102Z,68.23
2018-09-27T05:41:00.307Z,68.51
2018-09-27T05:43:28.519Z,68.60
2018-09-27T05:45:56.749Z,68.46
2018-09-27T05:48:24.948Z,68.72
2018-09-27T05:50:53.140Z,68.71
2018-09-27T05:53:21.316Z,68.82
2018-09-27T05:55:49.617Z,69.35
2018-09-27T05:58:17.817Z,69.25
2018-09-27T06:00:46.000Z,69.28
2018-09-27T06:03:14.188Z,69.16
2018-09-27T06:05:42.398Z,69.38
2018-09-27T06:08:10.579Z,69.47
2018-09-27T06:10:38.780Z,69.28
2018-09-27T06:13:07.059Z,69.35
2018-09-27T06:15:35.317Z,69.48
2018-09-27T06:18:03.435Z,69.63
2018-09-27T06:20:31.620Z,69.83
2018-09-27T06:22:59.782Z,69.87
2018-09-27T06:25:28.245Z,69.87
2018-09-27T06:27:56.427Z,69.97
2018-09-27T06:30:24.610Z,70.27
2018-09-27T06:32:52.792Z,70.38
2018-09-27T06:35:21.001Z,70.56
2018-09-27T06:37:49.184Z,70.42
2018-09-27T06:40:17.380Z,70.45
2018-09-27T06:42:45.596Z,70.36
2018-09-27T06:45:13.768Z,70.32
2018-09-27T06:47:41.972Z,70.13
2018-09-27T06:50:10.160Z,69.96
2018-09-27T06:52:38.334Z,70.06
2018-09-27T06:55:06.686Z,69.99
2018-09-27T06:57:34.732Z,69.93
2018-09-27T07:00:02.963Z,69.73
2018-09-27T07:02:31.181Z,69.83
2018-09-27T07:04:59.414Z,69.77
2018-09-27T07:07:28.020Z,69.89
2018-09-27T07:09:56.224Z,70.18
2018-09-27T07:12:24.594Z,70.11
2018-09-27T07:14:52.640Z,69.62
2018-09-27T07:17:20.819Z,69.46
2018-09-27T07:19:48.996Z,68.94
2018-09-27T07:22:17.220Z,68.14
2018-09-27T07:24:45.399Z,67.60
2018-09-27T07:27:13.591Z,67.47
2018-09-27T07:29:41.780Z,67.44
2018-09-27T07:32:09.997Z,67.75
2018-09-27T07:34:38.204Z,67.99
2018-09-27T07:37:06.744Z,67.98
2018-09-27T07:39:34.950Z,68.15
2018-09-27T07:42:03.136Z,68.30
2018-09-27T07:44:31.415Z,68.29
2018-09-27T07:46:59.526Z,68.12
2018-09-27T07:49:27.760Z,67.25
2018-09-27T07:51:55.959Z,65.49
2018-09-27T07:54:24.195Z,65.78
2018-09-27T07:56:53.796Z,65.46
2018-09-27T07:59:22.071Z,64.48
2018-09-27T08:01:50.257Z,63.23
2018-09-27T08:04:18.525Z,62.40
2018-09-27T08:06:46.644Z,62.02
2018-09-27T08:09:14.822Z,61.50
2018-09-27T08:11:43.066Z,60.12
2018-09-27T08:14:11.227Z,59.32
2018-09-27T08:16:39.428Z,59.05
2018-09-27T08:19:07.598Z,59.21
2018-09-27T08:21:35.786Z,57.68
2018-09-27T08:24:04.071Z,55.19
2018-09-27T08:26:32.215Z,56.57
2018-09-27T08:29:00.392Z,55.38
2018-09-27T08:31:28.575Z,56.07
2018-09-27T08:33:56.759Z,56.12
2018-09-27T08:36:24.955Z,55.77
2018-09-27T08:38:53.425Z,54.82
2018-09-27T08:41:21.800Z,52.37
2018-09-27T08:43:49.992Z,52.90
2018-09-27T08:46:18.344Z,52.36
2018-09-27T08:48:46.545Z,51.40
2018-09-27T08:51:14.712Z,50.16
2018-09-27T08:53:42.903Z,50.37
2018-09-27T08:56:11.193Z,51.36
2018-09-27T08:58:39.287Z,48.50
2018-09-27T09:01:07.504Z,48.47
2018-09-27T09:03:35.771Z,47.09
2018-09-27T09:06:03.935Z,47.84
2018-09-27T09:08:32.152Z,46.30
2018-09-27T09:11:00.379Z,46.54
2018-09-27T09:13:28.629Z,44.31
2018-09-27T09:15:56.796Z,45.09
2018-09-27T09:18:25.007Z,43.31
2018-09-27T09:20:53.211Z,44.45
2018-09-27T09:23:21.399Z,42.77
2018-09-27T09:25:49.609Z,42.02
2018-09-27T09:28:17.783Z,42.73
2018-09-27T09:30:45.992Z,43.59
2018-09-27T09:33:14.167Z,41.06
2018-09-27T09:35:42.445Z,38.70
2018-09-27T09:38:10.564Z,38.57
2018-09-27T09:40:38.799Z,37.64
2018-09-27T09:43:07.000Z,37.64
2018-09-27T09:45:35.202Z,36.58
2018-09-27T09:48:03.443Z,35.97
2018-09-27T09:50:31.629Z,35.99
2018-09-27T09:52:59.829Z,36.24
2018-09-27T09:55:28.023Z,35.10
2018-09-27T09:57:56.243Z,33.57
2018-09-27T10:00:24.438Z,35.84
2018-09-27T10:02:52.623Z,33.51
2018-09-27T10:05:20.847Z,33.48
2018-09-27T10:07:49.038Z,32.54
2018-09-27T10:10:17.249Z,31.34
2018-09-27T10:12:45.472Z,32.53
2018-09-27T10:15:13.664Z,32.91
2018-09-27T10:17:41.869Z,32.26
2018-09-27T10:20:10.075Z,31.52
2018-09-27T10:22:38.251Z,30.96
2018-09-27T10:25:06.471Z,31.51
2018-09-27T10:27:34.728Z,31.15
2018-09-27T10:30:02.860Z,29.21
2018-09-27T10:32:31.040Z,31.45
2018-09-27T10:34:59.250Z,30.31
2018-09-27T10:37:27.436Z,30.30
2018-09-27T10:39:55.636Z,29.23
2018-09-27T10:42:23.812Z,30.21
2018-09-27T10:44:52.005Z,29.78
2018-09-27T10:47:20.198Z,30.49
2018-09-27T10:49:48.380Z,29.02
2018-09-27T10:52:16.613Z,29.11
2018-09-27T10:54:44.810Z,29.37
2018-09-27T10:57:13.066Z,28.72
2018-09-27T10:59:41.215Z,28.27
2018-09-27T11:02:09.368Z,28.12
2018-09-27T11:04:37.548Z,28.43
2018-09-27T11:07:05.744Z,27.77
2018-09-27T11:09:33.935Z,28.15
2018-09-27T11:12:02.116Z,28.33
2018-09-27T11:14:30.293Z,28.56
2018-09-27T11:16:58.479Z,29.63
2018-09-27T11:19:26.679Z,28.77
2018-09-27T11:21:54.927Z,28.24
2018-09-27T11:24:23.087Z,29.19
2018-09-27T11:26:51.275Z,27.71
2018-09-27T11:29:24.899Z,28.46
2018-09-27T11:31:58.351Z,26.27
2018-09-27T11:34:26.561Z,27.05
2018-09-27T11:36:54.770Z,27.70
2018-09-27T11:39:22.946Z,28.25
2018-09-27T11:41:51.145Z,27.38
2018-09-27T11:44:19.332Z,26.95
2018-09-27T11:46:47.537Z,26.82
2018-09-27T11:49:15.920Z,29.29
2018-09-27T11:51:43.941Z,27.38
2018-09-27T11:54:12.135Z,27.28
2018-09-27T11:56:40.344Z,28.23
2018-09-27T11:59:08.585Z,27.95
2018-09-27T12:01:36.820Z,27.84
2018-09-27T12:04:04.948Z,26.76
2018-09-27T12:06:33.253Z,27.04
2018-09-27T12:09:01.382Z,27.38
2018-09-27T12:11:29.603Z,25.98
2018-09-27T12:13:57.851Z,26.90
2018-09-27T12:16:26.057Z,26.69
2018-09-27T12:18:54.233Z,26.81
2018-09-27T12:21:22.419Z,27.38
2018-09-27T12:23:50.615Z,28.57
2018-09-27T12:26:18.808Z,29.59
2018-09-27T12:28:47.000Z,27.34
2018-09-27T12:31:15.252Z,27.82
2018-09-27T12:33:43.437Z,27.88
2018-09-27T12:36:11.643Z,27.67
2018-09-27T12:38:39.874Z,26.81
2018-09-27T12:41:08.023Z,26.56
2018-09-27T12:43:36.228Z,27.25
2018-09-27T12:46:04.470Z,26.31
2018-09-27T12:48:32.688Z,27.30
2018-09-27T12:51:00.864Z,27.42
2018-09-27T12:53:28.982Z,26.64
2018-09-27T12:55:57.175Z,26.05
2018-09-27T12:58:25.362Z,26.04
2018-09-27T13:00:53.623Z,25.12
2018-09-27T13:03:21.747Z,25.09
2018-09-27T13:05:49.968Z,25.89
2018-09-27T13:08:18.163Z,26.21
2018-09-27T13:10:46.376Z,26.19
2018-09-27T13:13:14.663Z,27.08
2018-09-27T13:15:42.795Z,25.96
2018-09-27T13:18:10.980Z,26.24
2018-09-27T13:20:39.199Z,25.32
2018-09-27T13:23:07.501Z,25.28
2018-09-27T13:25:35.580Z,26.31
2018-09-27T13:28:03.767Z,23.55
2018-09-27T13:30:32.090Z,24.86
2018-09-27T13:33:00.304Z,24.27
2018-09-27T13:35:28.475Z,24.71
2018-09-27T13:37:56.732Z,24.32
2018-09-27T13:40:24.988Z,24.29
2018-09-27T13:42:53.191Z,25.59
2018-09-27T13:45:21.387Z,25.30
2018-09-27T13:47:49.555Z,25.89
2018-09-27T13:50:17.735Z,25.66
2018-09-27T13:52:45.927Z,26.25
2018-09-27T13:55:14.103Z,26.98
2018-09-27T13:57:42.304Z,26.38
2018-09-27T14:00:10.983Z,25.22
2018-09-27T14:02:39.170Z,25.70
2018-09-27T14:05:07.546Z,26.19
2018-09-27T14:07:35.755Z,26.29
2018-09-27T14:10:03.979Z,26.74
2018-09-27T14:12:32.189Z,26.06
2018-09-27T14:15:00.389Z,26.46
2018-09-27T14:17:28.594Z,24.85
2018-09-27T14:19:56.908Z,25.11
2018-09-27T14:22:25.104Z,26.00
2018-09-27T14:24:53.385Z,25.51
2018-09-27T14:27:21.520Z,26.88
2018-09-27T14:29:49.711Z,26.16
2018-09-27T14:32:18.040Z,27.28
2018-09-27T14:34:46.163Z,26.42
2018-09-27T14:37:14.393Z,26.74
2018-09-27T14:39:42.579Z,25.44
2018-09-27T14:42:10.756Z,26.55
2018-09-27T14:44:38.988Z,26.31
2018-09-27T14:47:07.176Z,27.15
2018-09-27T14:49:35.401Z,26.71
2018-09-27T14:52:03.599Z,26.26
2018-09-27T14:54:31.800Z,26.61
2018-09-27T14:56:59.982Z,28.01
2018-09-27T14:59:28.187Z,27.60
2018-09-27T15:01:56.401Z,27.38
2018-09-27T15:04:24.623Z,26.83
2018-09-27T15:06:52.817Z,25.96
2018-09-27T15:09:21.097Z,27.10
2018-09-27T15:11:49.255Z,26.35
2018-09-27T15:14:17.472Z,26.58
2018-09-27T15:16:45.771Z,26.89
2018-09-27T15:19:14.359Z,26.57
2018-09-27T15:21:42.625Z,27.01
2018-09-27T15:24:10.812Z,26.87
2018-09-27T15:26:39.123Z,27.23
2018-09-27T15:29:09.147Z,26.89
2018-09-27T15:31:37.543Z,26.65
2018-09-27T15:34:05.901Z,27.27
2018-09-27T15:36:34.387Z,27.72
2018-09-27T15:39:02.911Z,26.87
2018-09-27T15:41:31.525Z,26.99
2018-09-27T15:44:00.115Z,27.38
2018-09-27T15:46:28.611Z,28.07
2018-09-27T15:48:56.930Z,27.86
2018-09-27T15:51:25.212Z,29.11
2018-09-27T15:53:53.651Z,28.70
2018-09-27T15:56:21.862Z,29.37
2018-09-27T15:58:50.092Z,30.08
2018-09-27T16:01:18.339Z,30.23
2018-09-27T16:03:46.575Z,30.40
2018-09-27T16:06:14.777Z,30.83
2018-09-27T16:08:42.993Z,30.32
2018-09-27T16:11:11.221Z,31.52
2018-09-27T16:13:39.410Z,31.72
2018-09-27T16:16:08.226Z,31.69
2018-09-27T16:18:37.082Z,32.94
2018-09-27T16:21:06.745Z,32.77
2018-09-27T16:23:35.009Z,32.86
2018-09-27T16:26:05.920Z,33.25
2018-09-27T16:28:34.221Z,33.78
2018-09-27T16:31:02.524Z,34.09
2018-09-27T16:33:30.929Z,34.37
2018-09-27T16:35:59.434Z,34.16
2018-09-27T16:38:27.644Z,34.72
2018-09-27T16:40:55.983Z,34.55
2018-09-27T16:43:24.202Z,35.25
2018-09-27T16:45:52.498Z,35.24
2018-09-27T16:48:20.690Z,36.68
2018-09-27T16:50:48.874Z,36.71
2018-09-27T16:53:17.224Z,36.35
2018-09-27T16:55:45.467Z,36.47
2018-09-27T16:58:13.651Z,35.96
2018-09-27T17:00:41.848Z,37.02
2018-09-27T17:03:10.032Z,37.27
2018-09-27T17:05:38.244Z,37.91
2018-09-27T17:08:06.413Z,37.86
2018-09-27T17:10:34.649Z,37.88
2018-09-27T17:13:02.856Z,38.21
2018-09-27T17:15:31.003Z,38.77
2018-09-27T17:17:59.192Z,39.97
2018-09-27T17:20:27.360Z,40.85
2018-09-27T17:22:55.573Z,41.37
2018-09-27T17:25:23.764Z,42.00
2018-09-27T17:27:51.959Z,41.70
2018-09-27T17:30:20.163Z,41.69
2018-09-27T17:32:48.363Z,41.95
2018-09-27T17:35:16.563Z,42.68
2018-09-27T17:37:44.821Z,43.04
2018-09-27T17:40:14.056Z,42.91
2018-09-27T17:42:42.201Z,42.83
2018-09-27T17:45:11.128Z,43.30
2018-09-27T17:47:39.907Z,43.04
2018-09-27T17:50:08.261Z,42.96
2018-09-27T17:52:36.495Z,43.16
2018-09-27T17:55:05.827Z,43.29
2018-09-27T17:57:34.114Z,43.64
2018-09-27T18:00:02.370Z,44.09
2018-09-27T18:02:30.714Z,44.36
2018-09-27T18:04:59.779Z,44.48
2018-09-27T18:07:29.011Z,44.85
2018-09-27T18:09:57.192Z,44.85
2018-09-27T18:12:25.385Z,44.82
2018-09-27T18:14:53.694Z,45.65
2018-09-27T18:17:22.595Z,45.52
2018-09-27T18:19:51.337Z,46.11
2018-09-27T18:22:19.550Z,45.95
2018-09-27T18:24:47.865Z,45.93
2018-09-27T18:27:17.694Z,45.94
2018-09-27T18:29:45.936Z,46.49
2018-09-27T18:32:14.119Z,45.68
2018-09-27T18:34:42.382Z,46.20
2018-09-27T18:37:10.510Z,46.39
2018-09-27T18:39:38.738Z,46.06
2018-09-27T18:42:07.055Z,45.97
2018-09-27T18:44:35.235Z,46.47
2018-09-27T18:47:03.456Z,46.11
2018-09-27T18:49:31.653Z,46.37
2018-09-27T18:51:59.879Z,46.22
2018-09-27T18:54:28.051Z,47.04
2018-09-27T18:56:56.236Z,45.22
2018-09-27T18:59:24.428Z,46.41
2018-09-27T19:01:59.291Z,46.37
2018-09-27T19:04:27.504Z,46.46
2018-09-27T19:06:55.708Z,46.80
2018-09-27T19:09:23.902Z,46.25
2018-09-27T19:11:52.115Z,47.50
2018-09-27T19:14:20.298Z,47.14
2018-09-27T19:16:48.591Z,47.10
2018-09-27T19:19:16.866Z,47.98
2018-09-27T19:21:45.077Z,47.78
2018-09-27T19:24:13.275Z,47.90
2018-09-27T19:26:41.558Z,47.70
2018-09-27T19:29:09.784Z,48.01
2018-09-27T19:31:38.027Z,48.13
2018-09-27T19:34:06.261Z,48.93
2018-09-27T19:36:34.455Z,49.42
2018-09-27T19:39:02.753Z,49.47
2018-09-27T19:41:30.888Z,50.04
2018-09-27T19:43:59.095Z,50.23
2018-09-27T19:46:27.337Z,50.36
2018-09-27T19:48:55.502Z,50.57
2018-09-27T19:51:23.704Z,50.30
2018-09-27T19:53:51.909Z,50.49
2018-09-27T19:56:20.103Z,50.80
2018-09-27T19:58:48.312Z,50.45
2018-09-27T20:01:16.507Z,50.33
2018-09-27T20:03:44.711Z,51.19
2018-09-27T20:06:12.903Z,51.33
2018-09-27T20:08:41.099Z,51.72
2018-09-27T20:11:09.270Z,51.58
2018-09-27T20:13:37.572Z,52.17
2018-09-27T20:16:05.856Z,52.52
2018-09-27T20:18:33.979Z,52.65
2018-09-27T20:21:02.175Z,53.07
2018-09-27T20:23:30.384Z,53.01
2018-09-27T20:25:58.589Z,53.25
2018-09-27T20:28:26.801Z,53.98
2018-09-27T20:30:54.967Z,53.89
2018-09-27T20:33:23.163Z,54.01
2018-09-27T20:35:51.449Z,54.49
2018-09-27T20:38:19.660Z,54.91
2018-09-27T20:40:47.844Z,55.52
2018-09-27T20:43:16.045Z,56.06
2018-09-27T20:45:44.223Z,56.34
2018-09-27T20:48:12.420Z,56.53
2018-09-27T20:50:40.615Z,56.78
2018-09-27T20:53:08.811Z,57.22
2018-09-27T20:55:37.023Z,57.43
2018-09-27T20:58:05.209Z,57.47
2018-09-27T21:00:33.386Z,57.89
2018-09-27T21:03:01.744Z,57.63
2018-09-27T21:05:29.887Z,57.88
2018-09-27T21:07:58.047Z,57.88
2018-09-27T21:10:26.209Z,57.99
2018-09-27T21:12:54.351Z,58.18
2018-09-27T21:15:22.520Z,58.32
2018-09-27T21:17:50.675Z,58.56
2018-09-27T21:20:18.835Z,58.46
2018-09-27T21:22:47.008Z,58.31
2018-09-27T21:25:15.187Z,58.12
2018-09-27T21:27:43.344Z,58.35
2018-09-27T21:30:11.510Z,58.56
2018-09-27T21:32:39.668Z,58.64
2018-09-27T21:35:07.819Z,59.06
2018-09-27T21:37:35.997Z,59.14
2018-09-27T21:40:04.148Z,59.15
2018-09-27T21:42:32.288Z,59.37
2018-09-27T21:45:00.459Z,59.80
2018-09-27T21:47:28.616Z,60.10
2018-09-27T21:49:56.806Z,60.29
2018-09-27T21:52:24.935Z,60.28
2018-09-27T21:54:53.111Z,60.57
2018-09-27T21:57:21.271Z,60.67
2018-09-27T21:59:49.410Z,60.94
2018-09-27T22:02:17.578Z,61.07
2018-09-27T22:04:45.736Z,60.67
2018-09-27T22:07:13.895Z,60.67
2018-09-27T22:09:42.081Z,60.71
2018-09-27T22:12:10.407Z,60.81
2018-09-27T22:14:38.551Z,61.05
2018-09-27T22:17:06.753Z,61.07
2018-09-27T22:19:34.902Z,60.72
2018-09-27T22:22:03.083Z,60.97
2018-09-27T22:24:31.240Z,61.18
2018-09-27T22:26:59.411Z,61.00
2018-09-27T22:29:27.595Z,60.74
2018-09-27T22:31:55.751Z,61.36
2018-09-27T22:34:23.925Z,61.38
2018-09-27T22:36:52.258Z,61.55
2018-09-27T22:39:20.518Z,61.62
2018-09-27T22:41:48.676Z,61.91
2018-09-27T22:44:16.842Z,62.08
2018-09-27T22:46:45.016Z,62.58
2018-09-27T22:49:13.192Z,62.71
2018-09-27T22:51:41.339Z,62.94
2018-09-27T22:54:09.507Z,63.26
2018-09-27T22:56:37.691Z,63.14
2018-09-27T22:59:05.849Z,63.25
2018-09-27T23:01:34.007Z,63.53
2018-09-27T23:04:02.170Z,63.28
2018-09-27T23:06:30.344Z,63.57
2018-09-27T23:08:58.505Z,63.89
2018-09-27T23:11:31.143Z,63.93
2018-09-27T23:13:59.490Z,64.17
2018-09-27T23:16:27.843Z,64.48
2018-09-27T23:18:55.996Z,64.70
2018-09-27T23:21:24.156Z,64.86
2018-09-27T23:23:52.302Z,65.21
2018-09-27T23:26:20.462Z,65.20
2018-09-27T23:28:48.608Z,65.33
2018-09-27T23:31:16.775Z,65.59
2018-09-27T23:33:44.926Z,65.70
2018-09-27T23:36:13.078Z,65.98
2018-09-27T23:38:41.252Z,65.70
2018-09-27T23:41:09.407Z,66.00
2018-09-27T23:43:37.760Z,66.08
2018-09-27T23:46:06.743Z,66.12
2018-09-27T23:48:34.951Z,66.48
2018-09-27T23:51:03.175Z,66.34
2018-09-27T23:53:31.354Z,66.69
2018-09-27T23:55:59.550Z,67.01
2018-09-27T23:58:27.738Z,66.92
